sensor_id;sensor_type;location;lat;lon;timestamp;pressure;altitude;pressure_sealevel;temperature;humidity
14232;BME280;7200;52.194;9.900;2022-08-21T00:01:35;100495.00;;;18.09;100.00
14232;BME280;7200;52.194;9.900;2022-08-21T00:04:08;100510.38;;;18.05;100.00
14232;BME280;7200;52.194;9.900;2022-08-21T00:06:34;100523.25;;;17.99;100.00
14232;BME280;7200;52.194;9.900;2022-08-21T00:09:01;100534.16;;;17.96;100.00
14232;BME280;7200;52.194;9.900;2022-08-21T00:11:27;100544.41;;;18.02;100.00
14232;BME280;7200;52.194;9.900;2022-08-21T00:13:54;100532.88;;;18.01;100.00
14232;BME280;7200;52.194;9.900;2022-08-21T00:16:19;100543.50;;;18.16;100.00
14232;BME280;7200;52.194;9.900;2022-08-21T00:18:44;100544.91;;;18.21;100.00
14232;BME280;7200;52.194;9.900;2022-08-21T00:21:12;100530.69;;;18.21;100.00
14232;BME280;7200;52.194;9.900;2022-08-21T00:23:38;100533.88;;;18.13;100.00
14232;BME280;7200;52.194;9.900;2022-08-21T00:26:04;100498.97;;;17.89;100.00
14232;BME280;7200;52.194;9.900;2022-08-21T00:28:30;100493.13;;;17.69;100.00
14232;BME280;7200;52.194;9.900;2022-08-21T00:30:55;100495.63;;;17.58;100.00
14232;BME280;7200;52.194;9.900;2022-08-21T00:33:22;100530.66;;;17.66;100.00
14232;BME280;7200;52.194;9.900;2022-08-21T00:35:47;100527.06;;;17.67;100.00
14232;BME280;7200;52.194;9.900;2022-08-21T00:38:12;100527.06;;;17.67;100.00
14232;BME280;7200;52.194;9.900;2022-08-21T00:40:45;100530.56;;;17.68;100.00
14232;BME280;7200;52.194;9.900;2022-08-21T00:43:16;100498.53;;;17.41;100.00
14232;BME280;7200;52.194;9.900;2022-08-21T00:45:42;100525.66;;;17.47;100.00
14232;BME280;7200;52.194;9.900;2022-08-21T00:48:09;100544.22;;;17.63;100.00
14232;BME280;7200;52.194;9.900;2022-08-21T00:50:38;100543.41;;;17.76;100.00
14232;BME280;7200;52.194;9.900;2022-08-21T00:53:06;100526.47;;;17.77;100.00
14232;BME280;7200;52.194;9.900;2022-08-21T00:55:34;100527.13;;;17.80;100.00
14232;BME280;7200;52.194;9.900;2022-08-21T00:58:04;100530.53;;;17.82;100.00
14232;BME280;7200;52.194;9.900;2022-08-21T01:00:33;100528.56;;;17.86;100.00
14232;BME280;7200;52.194;9.900;2022-08-21T01:03:01;100530.91;;;17.90;100.00
14232;BME280;7200;52.194;9.900;2022-08-21T01:05:27;100536.25;;;17.90;100.00
14232;BME280;7200;52.194;9.900;2022-08-21T01:07:53;100531.00;;;17.89;100.00
14232;BME280;7200;52.194;9.900;2022-08-21T01:10:19;100504.06;;;17.65;100.00
14232;BME280;7200;52.194;9.900;2022-08-21T01:12:44;100499.47;;;17.40;100.00
14232;BME280;7200;52.194;9.900;2022-08-21T01:15:10;100506.38;;;17.29;100.00
14232;BME280;7200;52.194;9.900;2022-08-21T01:17:38;100508.09;;;17.16;100.00
14232;BME280;7200;52.194;9.900;2022-08-21T01:20:07;100507.25;;;17.01;100.00
14232;BME280;7200;52.194;9.900;2022-08-21T01:22:33;100531.78;;;17.06;100.00
14232;BME280;7200;52.194;9.900;2022-08-21T01:24:58;100524.56;;;16.94;100.00
14232;BME280;7200;52.194;9.900;2022-08-21T01:27:23;100541.31;;;16.96;100.00
14232;BME280;7200;52.194;9.900;2022-08-21T01:29:56;100542.25;;;16.95;100.00
14232;BME280;7200;52.194;9.900;2022-08-21T01:32:23;100558.16;;;16.97;100.00
14232;BME280;7200;52.194;9.900;2022-08-21T01:34:50;100561.22;;;17.05;100.00
14232;BME280;7200;52.194;9.900;2022-08-21T01:37:16;100555.47;;;16.97;100.00
14232;BME280;7200;52.194;9.900;2022-08-21T01:39:43;100543.16;;;16.80;100.00
14232;BME280;7200;52.194;9.900;2022-08-21T01:42:08;100549.03;;;16.70;100.00
14232;BME280;7200;52.194;9.900;2022-08-21T01:44:35;100573.84;;;16.87;100.00
14232;BME280;7200;52.194;9.900;2022-08-21T01:47:02;100563.22;;;17.01;100.00
14232;BME280;7200;52.194;9.900;2022-08-21T01:49:28;100565.31;;;17.10;100.00
14232;BME280;7200;52.194;9.900;2022-08-21T01:51:54;100541.88;;;16.87;100.00
14232;BME280;7200;52.194;9.900;2022-08-21T01:54:19;100533.59;;;16.61;100.00
14232;BME280;7200;52.194;9.900;2022-08-21T01:56:49;100534.94;;;16.54;100.00
14232;BME280;7200;52.194;9.900;2022-08-21T01:59:16;100538.16;;;16.45;100.00
14232;BME280;7200;52.194;9.900;2022-08-21T02:01:42;100549.66;;;16.45;100.00
14232;BME280;7200;52.194;9.900;2022-08-21T02:04:09;100543.72;;;16.40;100.00
14232;BME280;7200;52.194;9.900;2022-08-21T02:06:35;100553.69;;;16.37;100.00
14232;BME280;7200;52.194;9.900;2022-08-21T02:09:03;100559.03;;;16.37;100.00
14232;BME280;7200;52.194;9.900;2022-08-21T02:11:28;100560.84;;;16.36;100.00
14232;BME280;7200;52.194;9.900;2022-08-21T02:13:53;100576.59;;;16.55;100.00
14232;BME280;7200;52.194;9.900;2022-08-21T02:16:19;100573.13;;;16.69;100.00
14232;BME280;7200;52.194;9.900;2022-08-21T02:18:44;100548.13;;;16.55;100.00
14232;BME280;7200;52.194;9.900;2022-08-21T02:21:09;100521.44;;;16.27;100.00
14232;BME280;7200;52.194;9.900;2022-08-21T02:23:35;100545.91;;;16.33;100.00
14232;BME280;7200;52.194;9.900;2022-08-21T02:26:02;100544.41;;;16.44;100.00
14232;BME280;7200;52.194;9.900;2022-08-21T02:28:28;100560.97;;;16.49;100.00
14232;BME280;7200;52.194;9.900;2022-08-21T02:30:55;100543.88;;;16.53;100.00
14232;BME280;7200;52.194;9.900;2022-08-21T02:33:21;100532.63;;;16.48;100.00
14232;BME280;7200;52.194;9.900;2022-08-21T02:35:47;100526.50;;;16.31;100.00
14232;BME280;7200;52.194;9.900;2022-08-21T02:38:17;100528.34;;;16.15;100.00
14232;BME280;7200;52.194;9.900;2022-08-21T02:40:45;100551.56;;;16.27;100.00
14232;BME280;7200;52.194;9.900;2022-08-21T02:43:11;100547.13;;;16.28;100.00
14232;BME280;7200;52.194;9.900;2022-08-21T02:45:39;100523.03;;;16.15;100.00
14232;BME280;7200;52.194;9.900;2022-08-21T02:48:09;100503.06;;;15.92;100.00
14232;BME280;7200;52.194;9.900;2022-08-21T02:50:38;100512.03;;;15.75;100.00
14232;BME280;7200;52.194;9.900;2022-08-21T02:53:05;100521.53;;;15.79;100.00
14232;BME280;7200;52.194;9.900;2022-08-21T02:55:32;100515.53;;;15.75;100.00
14232;BME280;7200;52.194;9.900;2022-08-21T02:58:00;100552.50;;;15.96;100.00
14232;BME280;7200;52.194;9.900;2022-08-21T03:00:28;100545.59;;;16.08;100.00
14232;BME280;7200;52.194;9.900;2022-08-21T03:02:54;100532.16;;;15.95;100.00
14232;BME280;7200;52.194;9.900;2022-08-21T03:05:22;100508.88;;;15.67;100.00
14232;BME280;7200;52.194;9.900;2022-08-21T03:07:49;100517.13;;;15.62;100.00
14232;BME280;7200;52.194;9.900;2022-08-21T03:10:15;100530.34;;;15.64;100.00
14232;BME280;7200;52.194;9.900;2022-08-21T03:12:41;100537.97;;;15.70;100.00
14232;BME280;7200;52.194;9.900;2022-08-21T03:15:09;100535.66;;;15.64;100.00
14232;BME280;7200;52.194;9.900;2022-08-21T03:17:36;100526.56;;;15.52;100.00
14232;BME280;7200;52.194;9.900;2022-08-21T03:20:02;100525.19;;;15.45;100.00
14232;BME280;7200;52.194;9.900;2022-08-21T03:22:28;100541.16;;;15.45;100.00
14232;BME280;7200;52.194;9.900;2022-08-21T03:24:54;100543.47;;;15.51;100.00
14232;BME280;7200;52.194;9.900;2022-08-21T03:27:19;100549.13;;;15.61;100.00
14232;BME280;7200;52.194;9.900;2022-08-21T03:29:45;100549.38;;;15.72;100.00
14232;BME280;7200;52.194;9.900;2022-08-21T03:32:10;100556.97;;;15.95;100.00
14232;BME280;7200;52.194;9.900;2022-08-21T03:34:37;100548.28;;;16.08;100.00
14232;BME280;7200;52.194;9.900;2022-08-21T03:37:05;100541.66;;;16.15;100.00
14232;BME280;7200;52.194;9.900;2022-08-21T03:39:31;100519.03;;;15.92;100.00
14232;BME280;7200;52.194;9.900;2022-08-21T03:41:57;100500.06;;;15.66;100.00
14232;BME280;7200;52.194;9.900;2022-08-21T03:44:22;100524.69;;;15.70;100.00
14232;BME280;7200;52.194;9.900;2022-08-21T03:46:47;100543.59;;;15.81;100.00
14232;BME280;7200;52.194;9.900;2022-08-21T03:49:14;100555.84;;;16.00;100.00
14232;BME280;7200;52.194;9.900;2022-08-21T03:51:39;100535.25;;;15.87;100.00
14232;BME280;7200;52.194;9.900;2022-08-21T03:54:05;100549.84;;;15.96;100.00
14232;BME280;7200;52.194;9.900;2022-08-21T03:56:30;100548.09;;;15.95;100.00
14232;BME280;7200;52.194;9.900;2022-08-21T03:58:56;100542.97;;;15.92;100.00
14232;BME280;7200;52.194;9.900;2022-08-21T04:01:21;100547.63;;;15.88;100.00
14232;BME280;7200;52.194;9.900;2022-08-21T04:03:47;100529.31;;;15.66;100.00
14232;BME280;7200;52.194;9.900;2022-08-21T04:06:12;100532.56;;;15.40;100.00
14232;BME280;7200;52.194;9.900;2022-08-21T04:08:37;100552.06;;;15.56;100.00
14232;BME280;7200;52.194;9.900;2022-08-21T04:11:03;100572.31;;;15.74;100.00
14232;BME280;7200;52.194;9.900;2022-08-21T04:13:28;100566.16;;;15.90;100.00
14232;BME280;7200;52.194;9.900;2022-08-21T04:15:55;100572.38;;;16.05;100.00
14232;BME280;7200;52.194;9.900;2022-08-21T04:18:21;100579.59;;;16.19;100.00
14232;BME280;7200;52.194;9.900;2022-08-21T04:20:49;100578.38;;;16.24;100.00
14232;BME280;7200;52.194;9.900;2022-08-21T04:23:18;100562.09;;;16.14;100.00
14232;BME280;7200;52.194;9.900;2022-08-21T04:25:44;100566.97;;;16.06;100.00
14232;BME280;7200;52.194;9.900;2022-08-21T04:28:09;100569.16;;;16.00;100.00
14232;BME280;7200;52.194;9.900;2022-08-21T04:30:34;100563.38;;;15.91;100.00
14232;BME280;7200;52.194;9.900;2022-08-21T04:33:00;100551.72;;;15.78;100.00
14232;BME280;7200;52.194;9.900;2022-08-21T04:35:27;100582.44;;;15.84;100.00
14232;BME280;7200;52.194;9.900;2022-08-21T04:37:53;100586.91;;;15.99;100.00
14232;BME280;7200;52.194;9.900;2022-08-21T04:40:20;100572.06;;;15.95;100.00
14232;BME280;7200;52.194;9.900;2022-08-21T04:42:49;100567.94;;;15.89;100.00
14232;BME280;7200;52.194;9.900;2022-08-21T04:45:20;100563.13;;;15.80;100.00
14232;BME280;7200;52.194;9.900;2022-08-21T04:47:48;100582.97;;;15.90;100.00
14232;BME280;7200;52.194;9.900;2022-08-21T04:50:14;100590.88;;;15.92;100.00
14232;BME280;7200;52.194;9.900;2022-08-21T04:52:39;100582.09;;;16.06;100.00
14232;BME280;7200;52.194;9.900;2022-08-21T04:55:05;100590.06;;;16.22;100.00
14232;BME280;7200;52.194;9.900;2022-08-21T04:57:31;100587.91;;;16.28;100.00
14232;BME280;7200;52.194;9.900;2022-08-21T04:59:57;100594.78;;;16.32;100.00
14232;BME280;7200;52.194;9.900;2022-08-21T05:02:23;100600.25;;;16.45;100.00
14232;BME280;7200;52.194;9.900;2022-08-21T05:04:51;100608.38;;;16.58;100.00
14232;BME280;7200;52.194;9.900;2022-08-21T05:07:23;100606.88;;;16.68;100.00
14232;BME280;7200;52.194;9.900;2022-08-21T05:09:50;100595.97;;;16.73;100.00
14232;BME280;7200;52.194;9.900;2022-08-21T05:12:16;100595.47;;;16.66;100.00
14232;BME280;7200;52.194;9.900;2022-08-21T05:14:42;100599.75;;;16.69;100.00
14232;BME280;7200;52.194;9.900;2022-08-21T05:17:08;100604.13;;;16.70;100.00
14232;BME280;7200;52.194;9.900;2022-08-21T05:19:34;100608.31;;;16.74;100.00
14232;BME280;7200;52.194;9.900;2022-08-21T05:21:59;100609.97;;;16.77;100.00
14232;BME280;7200;52.194;9.900;2022-08-21T05:24:26;100613.91;;;16.85;100.00
14232;BME280;7200;52.194;9.900;2022-08-21T05:26:52;100614.03;;;16.98;100.00
14232;BME280;7200;52.194;9.900;2022-08-21T05:29:17;100593.47;;;17.00;100.00
14232;BME280;7200;52.194;9.900;2022-08-21T05:31:44;100600.16;;;17.07;100.00
14232;BME280;7200;52.194;9.900;2022-08-21T05:34:10;100592.16;;;17.07;100.00
14232;BME280;7200;52.194;9.900;2022-08-21T05:36:35;100599.00;;;16.97;100.00
14232;BME280;7200;52.194;9.900;2022-08-21T05:39:02;100568.34;;;16.90;100.00
14232;BME280;7200;52.194;9.900;2022-08-21T05:41:27;100596.53;;;17.08;100.00
14232;BME280;7200;52.194;9.900;2022-08-21T05:43:52;100603.97;;;17.32;100.00
14232;BME280;7200;52.194;9.900;2022-08-21T05:46:18;100614.44;;;17.49;100.00
14232;BME280;7200;52.194;9.900;2022-08-21T05:48:43;100610.78;;;17.65;100.00
14232;BME280;7200;52.194;9.900;2022-08-21T05:51:11;100613.84;;;17.87;100.00
14232;BME280;7200;52.194;9.900;2022-08-21T05:53:37;100604.22;;;17.85;100.00
14232;BME280;7200;52.194;9.900;2022-08-21T05:56:04;100603.47;;;17.97;100.00
14232;BME280;7200;52.194;9.900;2022-08-21T05:58:31;100604.75;;;18.04;100.00
14232;BME280;7200;52.194;9.900;2022-08-21T06:00:58;100616.06;;;18.22;100.00
14232;BME280;7200;52.194;9.900;2022-08-21T06:03:26;100618.28;;;18.43;100.00
14232;BME280;7200;52.194;9.900;2022-08-21T06:05:52;100615.41;;;18.46;100.00
14232;BME280;7200;52.194;9.900;2022-08-21T06:08:18;100609.22;;;18.58;100.00
14232;BME280;7200;52.194;9.900;2022-08-21T06:10:45;100599.53;;;18.57;100.00
14232;BME280;7200;52.194;9.900;2022-08-21T06:13:12;100611.34;;;18.80;100.00
14232;BME280;7200;52.194;9.900;2022-08-21T06:15:38;100612.97;;;18.96;100.00
14232;BME280;7200;52.194;9.900;2022-08-21T06:18:04;100598.22;;;19.03;100.00
14232;BME280;7200;52.194;9.900;2022-08-21T06:20:30;100593.41;;;18.95;100.00
14232;BME280;7200;52.194;9.900;2022-08-21T06:22:56;100600.34;;;18.98;100.00
14232;BME280;7200;52.194;9.900;2022-08-21T06:25:21;100619.81;;;19.13;100.00
14232;BME280;7200;52.194;9.900;2022-08-21T06:27:47;100607.63;;;19.09;100.00
14232;BME280;7200;52.194;9.900;2022-08-21T06:30:12;100600.34;;;18.98;100.00
14232;BME280;7200;52.194;9.900;2022-08-21T06:32:38;100593.66;;;18.78;100.00
14232;BME280;7200;52.194;9.900;2022-08-21T06:35:04;100592.22;;;18.86;100.00
14232;BME280;7200;52.194;9.900;2022-08-21T06:37:30;100608.47;;;19.09;100.00
14232;BME280;7200;52.194;9.900;2022-08-21T06:39:56;100612.56;;;19.28;100.00
14232;BME280;7200;52.194;9.900;2022-08-21T06:42:21;100610.94;;;19.38;100.00
14232;BME280;7200;52.194;9.900;2022-08-21T06:44:47;100602.59;;;19.42;100.00
14232;BME280;7200;52.194;9.900;2022-08-21T06:47:12;100612.13;;;19.47;100.00
14232;BME280;7200;52.194;9.900;2022-08-21T06:49:38;100601.84;;;19.28;100.00
14232;BME280;7200;52.194;9.900;2022-08-21T06:52:08;100593.72;;;19.16;100.00
14232;BME280;7200;52.194;9.900;2022-08-21T06:54:34;100604.13;;;19.08;100.00
14232;BME280;7200;52.194;9.900;2022-08-21T06:56:59;100600.66;;;19.06;100.00
14232;BME280;7200;52.194;9.900;2022-08-21T06:59:24;100604.22;;;19.06;100.00
14232;BME280;7200;52.194;9.900;2022-08-21T07:01:51;100603.44;;;18.92;100.00
14232;BME280;7200;52.194;9.900;2022-08-21T07:04:16;100609.00;;;18.89;100.00
14232;BME280;7200;52.194;9.900;2022-08-21T07:06:41;100620.03;;;18.97;100.00
14232;BME280;7200;52.194;9.900;2022-08-21T07:09:06;100609.34;;;18.97;100.00
14232;BME280;7200;52.194;9.900;2022-08-21T07:11:32;100600.66;;;19.06;100.00
14232;BME280;7200;52.194;9.900;2022-08-21T07:14:00;100605.72;;;19.11;100.00
14232;BME280;7200;52.194;9.900;2022-08-21T07:16:25;100587.06;;;18.96;100.00
14232;BME280;7200;52.194;9.900;2022-08-21T07:18:51;100590.84;;;18.94;100.00
14232;BME280;7200;52.194;9.900;2022-08-21T07:21:16;100593.81;;;18.89;100.00
14232;BME280;7200;52.194;9.900;2022-08-21T07:23:45;100580.75;;;18.84;100.00
14232;BME280;7200;52.194;9.900;2022-08-21T07:26:12;100589.09;;;18.93;100.00
14232;BME280;7200;52.194;9.900;2022-08-21T07:28:37;100579.69;;;19.00;100.00
14232;BME280;7200;52.194;9.900;2022-08-21T07:31:03;100598.44;;;19.25;100.00
14232;BME280;7200;52.194;9.900;2022-08-21T07:33:31;100590.41;;;19.38;100.00
14232;BME280;7200;52.194;9.900;2022-08-21T07:35:57;100573.56;;;19.49;100.00
14232;BME280;7200;52.194;9.900;2022-08-21T07:38:23;100574.53;;;19.61;100.00
14232;BME280;7200;52.194;9.900;2022-08-21T07:40:49;100551.81;;;19.67;100.00
14232;BME280;7200;52.194;9.900;2022-08-21T07:43:15;100541.31;;;19.63;100.00
14232;BME280;7200;52.194;9.900;2022-08-21T07:45:42;100550.41;;;19.74;100.00
14232;BME280;7200;52.194;9.900;2022-08-21T07:48:08;100563.44;;;19.91;100.00
14232;BME280;7200;52.194;9.900;2022-08-21T07:50:33;100557.06;;;20.05;100.00
14232;BME280;7200;52.194;9.900;2022-08-21T07:52:58;100544.56;;;20.17;100.00
14232;BME280;7200;52.194;9.900;2022-08-21T07:55:24;100537.19;;;20.32;100.00
14232;BME280;7200;52.194;9.900;2022-08-21T07:57:49;100505.41;;;20.27;97.28
14232;BME280;7200;52.194;9.900;2022-08-21T08:00:19;100508.41;;;20.22;97.58
14232;BME280;7200;52.194;9.900;2022-08-21T08:02:47;100481.38;;;19.90;99.72
14232;BME280;7200;52.194;9.900;2022-08-21T08:05:16;100497.56;;;19.89;100.00
14232;BME280;7200;52.194;9.900;2022-08-21T08:07:42;100499.50;;;19.87;100.00
14232;BME280;7200;52.194;9.900;2022-08-21T08:10:08;100506.94;;;19.94;100.00
14232;BME280;7200;52.194;9.900;2022-08-21T08:12:36;100514.34;;;20.15;100.00
14232;BME280;7200;52.194;9.900;2022-08-21T08:15:03;100491.72;;;20.19;98.50
14232;BME280;7200;52.194;9.900;2022-08-21T08:17:29;100498.03;;;20.42;96.10
14232;BME280;7200;52.194;9.900;2022-08-21T08:19:54;100506.56;;;20.58;96.03
14232;BME280;7200;52.194;9.900;2022-08-21T08:22:22;100502.38;;;20.67;95.21
14232;BME280;7200;52.194;9.900;2022-08-21T08:24:51;100495.44;;;20.76;95.30
14232;BME280;7200;52.194;9.900;2022-08-21T08:27:17;100480.44;;;20.73;94.14
14232;BME280;7200;52.194;9.900;2022-08-21T08:29:43;100485.34;;;20.91;93.53
14232;BME280;7200;52.194;9.900;2022-08-21T08:32:09;100485.81;;;20.96;93.79
14232;BME280;7200;52.194;9.900;2022-08-21T08:34:36;100498.75;;;21.02;94.65
14232;BME280;7200;52.194;9.900;2022-08-21T08:37:02;100506.41;;;21.18;94.45
14232;BME280;7200;52.194;9.900;2022-08-21T08:39:28;100492.78;;;21.10;95.44
14232;BME280;7200;52.194;9.900;2022-08-21T08:41:59;100487.63;;;21.18;94.62
14232;BME280;7200;52.194;9.900;2022-08-21T08:44:27;100472.28;;;21.09;94.81
14232;BME280;7200;52.194;9.900;2022-08-21T08:46:52;100473.63;;;21.14;93.99
14232;BME280;7200;52.194;9.900;2022-08-21T08:49:31;100476.53;;;21.23;93.01
14232;BME280;7200;52.194;9.900;2022-08-21T08:52:49;100453.84;;;21.27;90.28
14232;BME280;7200;52.194;9.900;2022-08-21T08:57:45;100430.13;;;21.54;84.63
14232;BME280;7200;52.194;9.900;2022-08-21T09:00:14;100431.22;;;21.63;84.41
14232;BME280;7200;52.194;9.900;2022-08-21T09:02:42;100434.28;;;21.91;82.62
14232;BME280;7200;52.194;9.900;2022-08-21T09:05:20;100429.19;;;22.09;80.28
14232;BME280;7200;52.194;9.900;2022-08-21T09:07:56;100437.28;;;22.30;79.47
14232;BME280;7200;52.194;9.900;2022-08-21T09:10:38;100431.31;;;22.47;78.44
14232;BME280;7200;52.194;9.900;2022-08-21T09:13:20;100424.69;;;22.51;78.22
14232;BME280;7200;52.194;9.900;2022-08-21T09:16:05;100372.75;;;22.30;76.02
14232;BME280;7200;52.194;9.900;2022-08-21T09:18:38;100365.75;;;22.17;75.67
14232;BME280;7200;52.194;9.900;2022-08-21T09:24:26;100391.66;;;22.40;75.46
14232;BME280;7200;52.194;9.900;2022-08-21T09:27:05;100362.84;;;22.51;73.37
14232;BME280;7200;52.194;9.900;2022-08-21T09:29:34;100386.31;;;22.80;73.29
14232;BME280;7200;52.194;9.900;2022-08-21T09:32:04;100376.09;;;22.74;73.24
14232;BME280;7200;52.194;9.900;2022-08-21T09:34:34;100354.56;;;22.74;71.64
14232;BME280;7200;52.194;9.900;2022-08-21T09:37:00;100359.66;;;22.77;72.19
14232;BME280;7200;52.194;9.900;2022-08-21T09:39:32;100383.78;;;22.88;73.24
14232;BME280;7200;52.194;9.900;2022-08-21T09:42:03;100357.16;;;22.85;72.17
14232;BME280;7200;52.194;9.900;2022-08-21T09:44:32;100342.69;;;22.77;72.60
14232;BME280;7200;52.194;9.900;2022-08-21T09:46:58;100348.69;;;23.00;70.84
14232;BME280;7200;52.194;9.900;2022-08-21T09:49:36;100356.97;;;23.18;71.32
14232;BME280;7200;52.194;9.900;2022-08-21T09:52:03;100331.91;;;23.27;68.96
14232;BME280;7200;52.194;9.900;2022-08-21T09:54:35;100340.00;;;23.17;69.82
14232;BME280;7200;52.194;9.900;2022-08-21T09:57:14;100320.56;;;23.13;68.62
14232;BME280;7200;52.194;9.900;2022-08-21T10:00:25;100321.84;;;23.19;69.55
14232;BME280;7200;52.194;9.900;2022-08-21T10:02:51;100356.84;;;23.48;69.33
14232;BME280;7200;52.194;9.900;2022-08-21T10:05:20;100343.28;;;23.79;67.67
14232;BME280;7200;52.194;9.900;2022-08-21T10:07:48;100318.31;;;23.87;66.61
14232;BME280;7200;52.194;9.900;2022-08-21T10:10:19;100283.97;;;23.89;65.01
14232;BME280;7200;52.194;9.900;2022-08-21T10:12:50;100275.91;;;23.69;64.54
14232;BME280;7200;52.194;9.900;2022-08-21T10:20:44;100255.31;;;23.78;63.96
14232;BME280;7200;52.194;9.900;2022-08-21T10:25:52;100250.66;;;23.80;62.29
14232;BME280;7200;52.194;9.900;2022-08-21T10:28:33;100281.56;;;23.86;62.84
14232;BME280;7200;52.194;9.900;2022-08-21T10:33:59;100286.16;;;23.17;66.18
14232;BME280;7200;52.194;9.900;2022-08-21T10:36:52;100247.31;;;23.49;63.14
14232;BME280;7200;52.194;9.900;2022-08-21T10:40:26;100291.47;;;23.95;63.26
14232;BME280;7200;52.194;9.900;2022-08-21T10:42:41;100278.56;;;23.99;63.73
14232;BME280;7200;52.194;9.900;2022-08-21T10:45:28;100288.47;;;24.08;64.16
14232;BME280;7200;52.194;9.900;2022-08-21T10:48:02;100267.88;;;24.17;62.88
14232;BME280;7200;52.194;9.900;2022-08-21T10:50:38;100248.75;;;24.10;63.00
14232;BME280;7200;52.194;9.900;2022-08-21T10:56:23;100278.63;;;24.26;64.92
14232;BME280;7200;52.194;9.900;2022-08-21T10:59:07;100300.56;;;24.41;64.81
14232;BME280;7200;52.194;9.900;2022-08-21T11:01:42;100244.81;;;24.60;62.59
14232;BME280;7200;52.194;9.900;2022-08-21T11:04:18;100253.94;;;24.77;61.73
14232;BME280;7200;52.194;9.900;2022-08-21T11:06:53;100280.56;;;24.90;62.70
14232;BME280;7200;52.194;9.900;2022-08-21T11:09:25;100245.19;;;24.93;60.52
14232;BME280;7200;52.194;9.900;2022-08-21T11:11:58;100213.94;;;25.08;58.69
14232;BME280;7200;52.194;9.900;2022-08-21T11:14:57;100230.72;;;25.20;57.44
14232;BME280;7200;52.194;9.900;2022-08-21T11:17:30;100235.06;;;25.13;59.04
14232;BME280;7200;52.194;9.900;2022-08-21T11:20:13;100213.47;;;25.31;57.57
14232;BME280;7200;52.194;9.900;2022-08-21T11:22:58;100212.69;;;25.38;56.84
14232;BME280;7200;52.194;9.900;2022-08-21T11:25:34;100235.91;;;25.75;57.00
14232;BME280;7200;52.194;9.900;2022-08-21T11:28:05;100175.19;;;25.61;54.90
14232;BME280;7200;52.194;9.900;2022-08-21T11:30:44;100184.16;;;25.18;55.98
14232;BME280;7200;52.194;9.900;2022-08-21T11:36:02;100226.34;;;25.01;58.50
14232;BME280;7200;52.194;9.900;2022-08-21T11:38:40;100179.09;;;24.97;57.26
14232;BME280;7200;52.194;9.900;2022-08-21T11:43:56;100149.59;;;25.21;55.73
14232;BME280;7200;52.194;9.900;2022-08-21T11:46:44;100137.44;;;24.99;54.77
14232;BME280;7200;52.194;9.900;2022-08-21T11:49:19;100146.41;;;25.00;54.71
14232;BME280;7200;52.194;9.900;2022-08-21T11:51:54;100181.03;;;24.86;56.56
14232;BME280;7200;52.194;9.900;2022-08-21T11:54:26;100165.13;;;25.01;55.40
14232;BME280;7200;52.194;9.900;2022-08-21T11:57:07;100166.25;;;25.35;54.39
14232;BME280;7200;52.194;9.900;2022-08-21T11:59:43;100146.69;;;25.41;52.79
14232;BME280;7200;52.194;9.900;2022-08-21T12:02:15;100199.03;;;25.66;54.41
14232;BME280;7200;52.194;9.900;2022-08-21T12:04:56;100134.47;;;25.55;53.46
14232;BME280;7200;52.194;9.900;2022-08-21T12:07:40;100110.63;;;25.50;52.69
14232;BME280;7200;52.194;9.900;2022-08-21T12:10:14;100211.53;;;25.67;54.62
14232;BME280;7200;52.194;9.900;2022-08-21T12:12:42;100134.09;;;25.84;51.85
14232;BME280;7200;52.194;9.900;2022-08-21T12:15:24;100138.19;;;25.88;52.16
14232;BME280;7200;52.194;9.900;2022-08-21T12:23:03;100157.88;;;26.07;52.40
14232;BME280;7200;52.194;9.900;2022-08-21T12:25:47;100135.66;;;25.87;51.61
14232;BME280;7200;52.194;9.900;2022-08-21T12:28:23;100191.47;;;25.96;53.75
14232;BME280;7200;52.194;9.900;2022-08-21T12:30:49;100198.34;;;26.25;52.91
14232;BME280;7200;52.194;9.900;2022-08-21T12:35:47;100208.81;;;26.78;52.46
14232;BME280;7200;52.194;9.900;2022-08-21T12:38:29;100122.03;;;26.72;49.29
14232;BME280;7200;52.194;9.900;2022-08-21T12:41:01;100155.03;;;26.75;50.48
14232;BME280;7200;52.194;9.900;2022-08-21T12:43:31;100103.53;;;26.42;49.84
14232;BME280;7200;52.194;9.900;2022-08-21T12:45:58;100142.78;;;26.47;50.71
14232;BME280;7200;52.194;9.900;2022-08-21T12:48:33;100133.56;;;26.66;50.48
14232;BME280;7200;52.194;9.900;2022-08-21T12:53:56;100157.56;;;26.85;50.96
14232;BME280;7200;52.194;9.900;2022-08-21T12:56:24;100173.66;;;26.87;51.83
14232;BME280;7200;52.194;9.900;2022-08-21T12:58:53;100145.75;;;26.86;51.67
14232;BME280;7200;52.194;9.900;2022-08-21T13:01:30;100177.03;;;26.89;52.38
14232;BME280;7200;52.194;9.900;2022-08-21T13:03:58;100118.00;;;26.68;50.97
14232;BME280;7200;52.194;9.900;2022-08-21T13:06:27;100043.69;;;26.54;47.99
14232;BME280;7200;52.194;9.900;2022-08-21T13:08:57;100136.59;;;26.87;49.62
14232;BME280;7200;52.194;9.900;2022-08-21T13:11:24;100102.94;;;26.98;48.42
14232;BME280;7200;52.194;9.900;2022-08-21T13:13:51;100099.50;;;26.47;50.20
14232;BME280;7200;52.194;9.900;2022-08-21T13:16:24;100119.09;;;26.40;50.62
14232;BME280;7200;52.194;9.900;2022-08-21T13:19:15;100140.09;;;26.47;51.68
14232;BME280;7200;52.194;9.900;2022-08-21T13:21:43;100132.50;;;26.58;51.27
14232;BME280;7200;52.194;9.900;2022-08-21T13:24:10;100124.56;;;26.65;51.12
14232;BME280;7200;52.194;9.900;2022-08-21T13:26:37;100164.31;;;26.73;52.61
14232;BME280;7200;52.194;9.900;2022-08-21T13:29:07;100155.38;;;26.89;51.30
14232;BME280;7200;52.194;9.900;2022-08-21T13:31:36;100130.00;;;26.82;51.57
14232;BME280;7200;52.194;9.900;2022-08-21T13:34:03;100162.63;;;26.72;53.09
14232;BME280;7200;52.194;9.900;2022-08-21T13:36:32;100162.81;;;26.95;52.19
14232;BME280;7200;52.194;9.900;2022-08-21T13:38:59;100147.25;;;27.13;51.28